createdAt,value
2023-03-01T00:01:29.663Z,86.66
2023-03-01T00:03:59.543Z,86.66
2023-03-01T00:06:33.244Z,86.50
2023-03-01T00:09:04.965Z,86.54
2023-03-01T00:11:35.552Z,86.52
2023-03-01T00:14:09.973Z,86.69
2023-03-01T00:16:45.874Z,85.93
2023-03-01T00:19:19.480Z,86.80
2023-03-01T00:21:51.610Z,86.90
2023-03-01T00:24:22.481Z,86.58
2023-03-01T00:26:58.412Z,87.01
2023-03-01T00:29:27.387Z,87.71
2023-03-01T00:31:58.734Z,87.78
2023-03-01T00:34:29.059Z,87.65
2023-03-01T00:37:08.207Z,87.68
2023-03-01T00:39:37.473Z,87.48
2023-03-01T00:42:08.710Z,87.65
2023-03-01T00:44:39.658Z,87.32
2023-03-01T00:47:09.228Z,87.46
2023-03-01T00:49:40.209Z,86.87
2023-03-01T00:52:11.440Z,86.91
2023-03-01T00:54:40.334Z,86.86
2023-03-01T00:57:11.555Z,87.17
2023-03-01T00:59:42.457Z,86.58
2023-03-01T01:02:13.679Z,86.88
2023-03-01T01:04:40.640Z,86.98
2023-03-01T01:07:11.935Z,87.16
2023-03-01T01:09:39.375Z,87.84
2023-03-01T01:12:10.985Z,87.79
2023-03-01T01:14:41.237Z,88.39
2023-03-01T01:17:10.794Z,88.53
2023-03-01T01:19:41.338Z,88.59
2023-03-01T01:22:12.727Z,88.96
2023-03-01T01:24:41.686Z,88.53
2023-03-01T01:27:11.123Z,88.97
2023-03-01T01:29:42.122Z,89.00
2023-03-01T01:32:13.372Z,88.81
2023-03-01T01:34:44.431Z,88.47
2023-03-01T01:37:13.623Z,88.44
2023-03-01T01:39:44.625Z,88.51
2023-03-01T01:42:20.884Z,88.42
2023-03-01T01:45:29.973Z,88.42
2023-03-01T01:48:07.973Z,88.38
2023-03-01T01:50:39.642Z,88.28
2023-03-01T01:53:21.960Z,88.36
2023-03-01T01:55:58.016Z,88.56
2023-03-01T01:58:32.549Z,88.35
2023-03-01T02:01:04.772Z,88.78
2023-03-01T02:03:38.580Z,88.25
2023-03-01T02:06:18.818Z,88.52
2023-03-01T02:08:50.607Z,88.53
2023-03-01T02:11:22.255Z,88.64
2023-03-01T02:13:53.490Z,88.36
2023-03-01T02:16:25.025Z,87.99
2023-03-01T02:18:54.531Z,88.42
2023-03-01T02:21:47.272Z,88.31
2023-03-01T02:24:46.993Z,88.68
2023-03-01T02:27:20.144Z,88.56
2023-03-01T02:29:50.125Z,88.66
2023-03-01T02:32:27.996Z,88.37
2023-03-01T02:34:57.650Z,88.53
2023-03-01T02:37:29.554Z,88.89
2023-03-01T02:40:03.908Z,88.58
2023-03-01T02:42:38.845Z,89.26
2023-03-01T02:45:08.521Z,89.00
2023-03-01T02:47:39.480Z,88.72
2023-03-01T02:50:30.962Z,88.42
2023-03-01T02:53:13.998Z,88.74
2023-03-01T02:55:43.273Z,88.71
2023-03-01T02:58:14.485Z,88.94
2023-03-01T03:00:47.977Z,88.93
2023-03-01T03:03:22.425Z,88.83
2023-03-01T03:05:51.806Z,89.00
2023-03-01T03:08:26.875Z,89.12
2023-03-01T03:10:56.886Z,89.22
2023-03-01T03:13:31.359Z,89.32
2023-03-01T03:16:03.562Z,89.33
2023-03-01T03:18:34.543Z,89.00
2023-03-01T03:21:03.936Z,89.30
2023-03-01T03:23:34.861Z,89.49
2023-03-01T03:26:07.692Z,89.18
2023-03-01T03:28:42.951Z,89.00
2023-03-01T03:31:14.408Z,89.40
2023-03-01T03:33:45.403Z,88.78
2023-03-01T03:36:20.132Z,88.94
2023-03-01T03:38:51.924Z,88.78
2023-03-01T03:41:21.341Z,88.43
2023-03-01T03:43:50.404Z,88.36
2023-03-01T03:46:21.577Z,88.42
2023-03-01T03:48:53.123Z,88.05
2023-03-01T03:51:25.802Z,88.41
2023-03-01T03:53:56.787Z,88.35
2023-03-01T03:56:28.604Z,88.61
2023-03-01T03:58:59.894Z,88.66
2023-03-01T04:01:29.337Z,88.93
2023-03-01T04:04:07.041Z,89.04
2023-03-01T04:06:38.297Z,88.91
2023-03-01T04:09:11.409Z,89.13
2023-03-01T04:11:42.709Z,88.84
2023-03-01T04:14:13.700Z,88.63
2023-03-01T04:16:47.033Z,88.68
2023-03-01T04:19:17.949Z,88.62
2023-03-01T04:21:49.168Z,88.17
2023-03-01T04:24:18.035Z,88.05
2023-03-01T04:26:49.243Z,88.34
2023-03-01T04:29:18.093Z,87.83
2023-03-01T04:31:52.253Z,87.95
2023-03-01T04:34:21.346Z,87.95
2023-03-01T04:36:52.691Z,87.43
2023-03-01T04:39:21.997Z,87.92
2023-03-01T04:41:53.215Z,87.97
2023-03-01T04:44:22.167Z,87.68
2023-03-01T04:46:53.366Z,87.42
2023-03-01T04:49:24.315Z,87.17
2023-03-01T04:51:55.792Z,87.45
2023-03-01T04:54:27.001Z,87.89
2023-03-01T04:56:56.539Z,87.88
2023-03-01T04:59:27.918Z,87.81
2023-03-01T05:01:59.955Z,87.53
2023-03-01T05:04:29.320Z,87.61
2023-03-01T05:07:01.807Z,87.79
2023-03-01T05:09:30.701Z,87.49
2023-03-01T05:12:02.005Z,87.60
2023-03-01T05:14:34.900Z,87.92
2023-03-01T05:17:07.065Z,87.90
2023-03-01T05:19:36.367Z,87.57
2023-03-01T05:22:06.035Z,87.67
2023-03-01T05:24:38.226Z,87.55
2023-03-01T05:27:07.456Z,88.14
2023-03-01T05:29:37.963Z,88.23
2023-03-01T05:32:09.394Z,88.53
2023-03-01T05:34:39.336Z,88.46
2023-03-01T05:37:11.508Z,88.98
2023-03-01T05:39:40.870Z,88.66
2023-03-01T05:42:14.440Z,88.51
2023-03-01T05:44:43.327Z,88.65
2023-03-01T05:47:12.582Z,88.54
2023-03-01T05:49:41.774Z,88.47
2023-03-01T05:52:13.410Z,88.20
2023-03-01T05:54:44.566Z,88.47
2023-03-01T05:57:15.887Z,88.20
2023-03-01T05:59:46.950Z,87.51
2023-03-01T06:02:16.162Z,87.16
2023-03-01T06:04:49.372Z,87.76
2023-03-01T06:07:18.703Z,87.68
2023-03-01T06:09:49.779Z,87.24
2023-03-01T06:12:21.226Z,86.88
2023-03-01T06:14:52.298Z,86.27
2023-03-01T06:17:23.580Z,86.15
2023-03-01T06:19:54.586Z,85.97
2023-03-01T06:22:26.423Z,85.85
2023-03-01T06:24:55.314Z,85.67
2023-03-01T06:27:26.544Z,85.08
2023-03-01T06:29:53.773Z,85.05
2023-03-01T06:32:25.147Z,84.54
2023-03-01T06:34:52.125Z,84.34
2023-03-01T06:37:23.314Z,84.09
2023-03-01T06:39:52.295Z,83.85
2023-03-01T06:42:21.504Z,83.37
2023-03-01T06:44:50.404Z,83.54
2023-03-01T06:47:22.029Z,82.60
2023-03-01T06:49:53.153Z,82.86
2023-03-01T06:52:20.412Z,83.08
2023-03-01T06:54:49.468Z,82.05
2023-03-01T06:57:18.873Z,82.53
2023-03-01T06:59:50.694Z,82.80
2023-03-01T07:02:22.115Z,82.57
2023-03-01T07:04:52.295Z,81.80
2023-03-01T07:07:21.986Z,81.50
2023-03-01T07:09:51.288Z,81.44
2023-03-01T07:12:22.500Z,81.70
2023-03-01T07:14:53.743Z,82.08
2023-03-01T07:17:23.103Z,82.24
2023-03-01T07:19:54.085Z,81.57
2023-03-01T07:22:23.302Z,81.17
2023-03-01T07:24:54.382Z,81.00
2023-03-01T07:27:25.714Z,81.28
2023-03-01T07:29:56.618Z,81.11
2023-03-01T07:32:27.925Z,80.76
2023-03-01T07:34:56.906Z,80.31
2023-03-01T07:37:28.379Z,79.88
2023-03-01T07:39:59.300Z,79.70
2023-03-01T07:42:30.627Z,79.01
2023-03-01T07:44:59.544Z,78.06
2023-03-01T07:47:31.140Z,77.70
2023-03-01T07:50:00.631Z,77.85
2023-03-01T07:52:32.553Z,76.91
2023-03-01T07:55:01.285Z,76.48
2023-03-01T07:57:32.493Z,77.11
2023-03-01T08:00:01.389Z,76.14
2023-03-01T08:02:41.857Z,76.31
2023-03-01T08:05:11.526Z,76.69
2023-03-01T08:07:42.886Z,75.64
2023-03-01T08:10:12.652Z,74.25
2023-03-01T08:12:43.945Z,73.75
2023-03-01T08:15:13.044Z,73.10
2023-03-01T08:17:44.290Z,72.69
2023-03-01T08:20:13.657Z,72.33
2023-03-01T08:22:45.077Z,72.66
2023-03-01T08:25:14.180Z,72.75
2023-03-01T08:27:43.515Z,71.89
2023-03-01T08:30:12.947Z,72.25
2023-03-01T08:32:44.428Z,72.19
2023-03-01T08:35:13.446Z,70.49
2023-03-01T08:37:44.775Z,70.26
2023-03-01T08:40:14.518Z,71.02
2023-03-01T08:42:46.015Z,70.60
2023-03-01T08:45:19.133Z,71.45
2023-03-01T08:47:50.394Z,71.32
2023-03-01T08:50:21.427Z,72.16
2023-03-01T08:52:52.582Z,71.82
2023-03-01T08:55:21.494Z,71.85
2023-03-01T08:57:54.729Z,71.58
2023-03-01T09:00:24.179Z,71.88
2023-03-01T09:02:55.461Z,71.18
2023-03-01T09:05:24.586Z,69.91
2023-03-01T09:07:56.127Z,69.60
2023-03-01T09:10:25.393Z,70.65
2023-03-01T09:12:56.687Z,70.72
2023-03-01T09:15:26.492Z,70.69
2023-03-01T09:17:58.003Z,69.44
2023-03-01T09:20:26.938Z,69.95
2023-03-01T09:22:58.192Z,69.94
2023-03-01T09:25:25.597Z,69.11
2023-03-01T09:27:58.166Z,68.15
2023-03-01T09:30:27.475Z,68.10
2023-03-01T09:33:00.198Z,69.01
2023-03-01T09:35:31.333Z,69.10
2023-03-01T09:38:00.708Z,68.76
2023-03-01T09:40:32.537Z,69.48
2023-03-01T09:43:31.374Z,69.14
2023-03-01T09:46:07.790Z,69.77
2023-03-01T09:48:45.897Z,70.07
2023-03-01T09:51:36.810Z,69.37
2023-03-01T09:54:11.364Z,68.56
2023-03-01T09:57:28.704Z,69.01
2023-03-01T10:00:21.868Z,68.83
2023-03-01T10:03:00.797Z,68.39
2023-03-01T10:05:42.886Z,68.01
2023-03-01T10:08:11.806Z,69.11
2023-03-01T10:10:49.565Z,69.41
2023-03-01T10:14:03.895Z,68.26
2023-03-01T10:16:57.028Z,68.66
2023-03-01T10:19:32.105Z,69.01
2023-03-01T10:22:32.812Z,68.66
2023-03-01T10:25:06.988Z,68.34
2023-03-01T10:27:50.305Z,67.36
2023-03-01T10:30:42.343Z,67.35
2023-03-01T10:33:35.112Z,67.51
2023-03-01T10:36:06.925Z,67.75
2023-03-01T10:39:21.334Z,67.92
2023-03-01T10:42:08.235Z,67.36
2023-03-01T10:44:50.053Z,67.65
2023-03-01T10:47:27.694Z,68.18
2023-03-01T10:50:20.555Z,67.56
2023-03-01T10:53:03.007Z,66.71
2023-03-01T10:55:40.757Z,66.52
2023-03-01T10:58:16.040Z,66.38
2023-03-01T11:00:50.236Z,66.28
2023-03-01T11:03:25.106Z,66.61
2023-03-01T11:05:57.884Z,66.00
2023-03-01T11:08:46.640Z,66.20
2023-03-01T11:11:37.982Z,65.44
2023-03-01T11:14:27.711Z,65.72
2023-03-01T11:17:05.793Z,66.14
2023-03-01T11:19:36.880Z,65.90
2023-03-01T11:22:16.489Z,65.86
2023-03-01T11:24:57.334Z,64.99
2023-03-01T11:27:45.944Z,65.41
2023-03-01T11:30:31.952Z,64.73
2023-03-01T11:33:11.848Z,64.43
2023-03-01T11:35:57.663Z,65.05
2023-03-01T11:38:30.533Z,64.84
2023-03-01T11:41:09.145Z,65.28
2023-03-01T11:43:40.436Z,65.36
2023-03-01T11:46:36.313Z,65.50
2023-03-01T11:49:35.484Z,66.04
2023-03-01T11:52:24.621Z,65.49
2023-03-01T11:55:16.396Z,65.93
2023-03-01T11:58:11.348Z,65.23
2023-03-01T12:01:04.778Z,65.32
2023-03-01T12:03:53.595Z,65.12
2023-03-01T12:06:29.840Z,65.60
2023-03-01T12:09:07.019Z,65.96
2023-03-01T12:11:47.696Z,65.59
2023-03-01T12:14:45.970Z,66.07
2023-03-01T12:17:39.302Z,65.29
2023-03-01T12:20:50.880Z,64.81
2023-03-01T12:23:48.234Z,64.21
2023-03-01T12:26:34.806Z,64.63
2023-03-01T12:29:34.712Z,65.56
2023-03-01T12:32:22.553Z,64.96
2023-03-01T12:34:59.935Z,65.62
2023-03-01T12:37:43.965Z,65.53
2023-03-01T12:40:15.903Z,65.67
2023-03-01T12:43:03.770Z,65.14
2023-03-01T12:45:41.629Z,65.84
2023-03-01T12:48:52.381Z,66.02
2023-03-01T12:51:29.534Z,66.51
2023-03-01T12:54:02.830Z,65.90
2023-03-01T12:56:36.254Z,65.34
2023-03-01T12:59:07.314Z,65.14
2023-03-01T13:02:00.687Z,65.59
2023-03-01T13:04:59.982Z,65.94
2023-03-01T13:07:29.319Z,65.99
2023-03-01T13:10:09.291Z,65.81
2023-03-01T13:12:53.629Z,65.92
2023-03-01T13:15:24.801Z,65.83
2023-03-01T13:18:00.129Z,65.95
2023-03-01T13:20:36.834Z,65.54
2023-03-01T13:23:27.206Z,65.35
2023-03-01T13:26:16.898Z,65.48
2023-03-01T13:28:54.785Z,65.91
2023-03-01T13:31:28.841Z,65.94
2023-03-01T13:34:04.216Z,66.21
2023-03-01T13:36:37.209Z,65.96
2023-03-01T13:39:48.154Z,65.74
2023-03-01T13:42:38.088Z,66.41
2023-03-01T13:45:18.906Z,65.94
2023-03-01T13:47:55.828Z,66.38
2023-03-01T13:50:34.358Z,66.61
2023-03-01T13:53:07.396Z,66.63
2023-03-01T13:55:48.140Z,66.94
2023-03-01T13:58:28.977Z,67.37
2023-03-01T14:01:07.636Z,67.55
2023-03-01T14:03:44.802Z,67.75
2023-03-01T14:06:21.205Z,66.46
2023-03-01T14:09:02.920Z,65.73
2023-03-01T14:11:34.832Z,65.32
2023-03-01T14:14:27.405Z,65.22
2023-03-01T14:17:16.059Z,64.23
2023-03-01T14:19:47.537Z,63.33
2023-03-01T14:22:28.135Z,64.04
2023-03-01T14:25:20.659Z,64.01
2023-03-01T14:28:23.012Z,65.14
2023-03-01T14:30:56.341Z,65.07
2023-03-01T14:33:29.825Z,64.64
2023-03-01T14:36:12.776Z,64.90
2023-03-01T14:38:44.708Z,65.43
2023-03-01T14:41:19.058Z,65.63
2023-03-01T14:43:52.643Z,64.91
2023-03-01T14:46:32.558Z,65.20
2023-03-01T14:49:16.822Z,64.09
2023-03-01T14:52:10.331Z,65.15
2023-03-01T14:54:55.976Z,64.93
2023-03-01T14:57:27.541Z,65.56
2023-03-01T15:00:03.537Z,65.90
2023-03-01T15:02:33.953Z,66.80
2023-03-01T15:05:09.015Z,67.45
2023-03-01T15:07:44.220Z,68.00
2023-03-01T15:10:23.760Z,67.89
2023-03-01T15:12:53.969Z,68.41
2023-03-01T15:15:29.990Z,68.25
2023-03-01T15:18:05.332Z,68.20
2023-03-01T15:20:39.107Z,68.64
2023-03-01T15:23:22.805Z,68.43
2023-03-01T15:25:59.806Z,68.20
2023-03-01T15:28:44.388Z,67.88
2023-03-01T15:31:26.076Z,68.30
2023-03-01T15:34:12.196Z,68.46
2023-03-01T15:36:51.312Z,68.60
2023-03-01T15:39:41.886Z,69.30
2023-03-01T15:42:34.105Z,69.67
2023-03-01T15:45:31.179Z,69.40
2023-03-01T15:48:06.491Z,69.75
2023-03-01T15:50:42.973Z,69.90
2023-03-01T15:53:17.514Z,69.97
2023-03-01T15:55:51.814Z,70.29
2023-03-01T15:58:25.848Z,70.65
2023-03-01T16:01:02.641Z,70.76
2023-03-01T16:03:32.785Z,71.55
2023-03-01T16:06:04.247Z,71.93
2023-03-01T16:08:33.762Z,71.94
2023-03-01T16:11:07.857Z,72.67
2023-03-01T16:13:37.397Z,72.77
2023-03-01T16:16:08.642Z,72.82
2023-03-01T16:18:37.931Z,73.44
2023-03-01T16:21:09.442Z,73.11
2023-03-01T16:23:39.034Z,73.57
2023-03-01T16:26:10.144Z,73.64
2023-03-01T16:28:42.856Z,74.21
2023-03-01T16:31:14.507Z,74.55
2023-03-01T16:33:45.771Z,74.72
2023-03-01T16:36:17.267Z,75.17
2023-03-01T16:38:49.085Z,75.43
2023-03-01T16:41:22.593Z,75.99
2023-03-01T16:43:54.319Z,76.30
2023-03-01T16:46:29.156Z,76.32
2023-03-01T16:49:00.768Z,76.50
2023-03-01T16:51:31.180Z,76.56
2023-03-01T16:54:02.807Z,76.98
2023-03-01T16:56:34.135Z,77.26
2023-03-01T16:59:06.472Z,77.26
2023-03-01T17:01:40.690Z,77.85
2023-03-01T17:04:16.167Z,78.02
2023-03-01T17:06:47.607Z,78.90
2023-03-01T17:09:20.155Z,78.87
2023-03-01T17:11:52.701Z,79.37
2023-03-01T17:14:25.138Z,79.59
2023-03-01T17:16:54.422Z,79.98
2023-03-01T17:19:23.994Z,80.34
2023-03-01T17:21:55.075Z,80.29
2023-03-01T17:24:25.859Z,80.70
2023-03-01T17:26:59.102Z,80.62
2023-03-01T17:29:31.563Z,81.05
2023-03-01T17:32:03.501Z,81.19
2023-03-01T17:34:34.015Z,81.48
2023-03-01T17:37:05.333Z,81.70
2023-03-01T17:39:36.613Z,82.13
2023-03-01T17:42:08.231Z,81.72
2023-03-01T17:44:41.048Z,82.49
2023-03-01T17:47:15.515Z,82.94
2023-03-01T17:49:44.794Z,83.27
2023-03-01T17:52:15.050Z,82.94
2023-03-01T17:54:46.481Z,83.37
2023-03-01T17:57:17.766Z,83.15
2023-03-01T17:59:46.988Z,83.47
2023-03-01T18:02:16.282Z,83.40
2023-03-01T18:04:45.666Z,84.13
2023-03-01T18:07:18.175Z,84.15
2023-03-01T18:09:48.034Z,84.06
2023-03-01T18:12:19.023Z,84.35
2023-03-01T18:14:53.677Z,84.90
2023-03-01T18:17:28.550Z,84.98
2023-03-01T18:19:59.488Z,85.06
2023-03-01T18:22:33.536Z,85.06
2023-03-01T18:25:05.642Z,85.66
2023-03-01T18:27:37.039Z,85.64
2023-03-01T18:30:10.815Z,85.07
2023-03-01T18:32:40.710Z,85.13
2023-03-01T18:35:12.171Z,85.62
2023-03-01T18:37:41.115Z,85.44
2023-03-01T18:40:13.021Z,85.67
2023-03-01T18:42:44.177Z,85.61
2023-03-01T18:45:19.062Z,85.84
2023-03-01T18:47:50.062Z,85.97
2023-03-01T18:50:20.230Z,86.03
2023-03-01T18:52:51.948Z,86.09
2023-03-01T18:55:23.799Z,86.33
2023-03-01T18:57:54.878Z,85.87
2023-03-01T19:00:26.843Z,86.08
2023-03-01T19:02:58.068Z,86.57
2023-03-01T19:05:28.815Z,86.16
2023-03-01T19:08:00.276Z,86.39
2023-03-01T19:10:29.537Z,86.54
2023-03-01T19:13:00.937Z,86.91
2023-03-01T19:15:30.256Z,86.80
2023-03-01T19:17:59.617Z,86.71
2023-03-01T19:20:33.255Z,87.07
2023-03-01T19:23:04.389Z,87.29
2023-03-01T19:25:36.191Z,87.44
2023-03-01T19:28:05.266Z,87.58
2023-03-01T19:30:36.573Z,87.32
2023-03-01T19:33:08.104Z,87.68
2023-03-01T19:35:37.843Z,87.74
2023-03-01T19:38:08.979Z,87.86
2023-03-01T19:40:40.328Z,88.07
2023-03-01T19:43:09.410Z,87.97
2023-03-01T19:45:40.759Z,88.04
2023-03-01T19:48:09.714Z,88.64
2023-03-01T19:50:42.305Z,88.60
2023-03-01T19:53:12.504Z,88.72
2023-03-01T19:55:44.857Z,89.16
2023-03-01T19:58:14.187Z,89.15
2023-03-01T20:00:48.617Z,89.71
2023-03-01T20:03:18.049Z,89.64
2023-03-01T20:05:49.739Z,89.68
2023-03-01T20:08:16.680Z,89.83
2023-03-01T20:10:48.019Z,90.28
2023-03-01T20:13:17.646Z,90.43
2023-03-01T20:15:47.167Z,90.66
2023-03-01T20:18:16.098Z,90.60
2023-03-01T20:20:51.395Z,90.53
2023-03-01T20:23:23.562Z,91.02
2023-03-01T20:26:01.111Z,91.20
2023-03-01T20:28:33.645Z,91.36
2023-03-01T20:31:10.193Z,91.16
2023-03-01T20:33:43.767Z,91.22
2023-03-01T20:36:13.788Z,91.16
2023-03-01T20:38:44.846Z,91.19
2023-03-01T20:41:14.459Z,91.22
2023-03-01T20:43:45.856Z,91.72
2023-03-01T20:46:15.326Z,92.01
2023-03-01T20:48:46.442Z,91.81
2023-03-01T20:51:19.019Z,91.82
2023-03-01T20:53:50.077Z,91.95
2023-03-01T20:56:21.172Z,92.09
2023-03-01T20:59:18.308Z,92.86
2023-03-01T21:01:47.893Z,92.89
2023-03-01T21:04:19.985Z,92.62
2023-03-01T21:06:49.678Z,92.54
2023-03-01T21:09:21.196Z,92.58
2023-03-01T21:11:51.176Z,93.07
2023-03-01T21:14:20.484Z,93.37
2023-03-01T21:16:53.851Z,93.50
2023-03-01T21:19:26.013Z,93.75
2023-03-01T21:21:57.305Z,93.56
2023-03-01T21:24:26.249Z,93.66
2023-03-01T21:26:57.570Z,94.12
2023-03-01T21:29:27.002Z,94.73
2023-03-01T21:31:56.886Z,94.50
2023-03-01T21:34:25.931Z,94.56
2023-03-01T21:36:57.553Z,94.73
2023-03-01T21:39:29.077Z,94.76
2023-03-01T21:42:04.515Z,95.12
2023-03-01T21:44:36.216Z,95.10
2023-03-01T21:47:05.647Z,95.21
2023-03-01T21:49:36.664Z,95.54
2023-03-01T21:52:08.363Z,95.42
2023-03-01T21:54:39.745Z,95.80
2023-03-01T21:57:11.252Z,95.46
2023-03-01T21:59:40.406Z,95.58
2023-03-01T22:02:16.730Z,95.58
2023-03-01T22:04:48.295Z,95.95
2023-03-01T22:07:17.863Z,95.76
2023-03-01T22:09:48.854Z,95.72
2023-03-01T22:12:18.285Z,96.06
2023-03-01T22:14:49.418Z,96.42
2023-03-01T22:17:18.760Z,96.26
2023-03-01T22:19:50.026Z,96.40
2023-03-01T22:22:19.739Z,96.45
2023-03-01T22:24:50.679Z,96.72
2023-03-01T22:27:19.895Z,96.79
2023-03-01T22:29:51.153Z,97.21
2023-03-01T22:32:22.753Z,97.13
2023-03-01T22:34:53.825Z,97.05
2023-03-01T22:37:23.196Z,97.11
2023-03-01T22:39:54.793Z,97.36
2023-03-01T22:42:24.370Z,97.29
2023-03-01T22:44:55.368Z,97.39
2023-03-01T22:47:26.913Z,97.33
2023-03-01T22:49:58.028Z,97.35
2023-03-01T22:52:29.296Z,97.46
2023-03-01T22:54:56.506Z,97.89
2023-03-01T22:57:28.213Z,97.90
2023-03-01T22:59:57.448Z,98.15
2023-03-01T23:02:29.512Z,98.44
2023-03-01T23:04:58.766Z,98.60
2023-03-01T23:07:28.255Z,98.84
2023-03-01T23:10:04.151Z,98.91
2023-03-01T23:12:33.381Z,99.10
2023-03-01T23:15:04.467Z,98.86
2023-03-01T23:17:32.117Z,99.00
2023-03-01T23:20:12.697Z,99.28
2023-03-01T23:22:44.398Z,99.54
2023-03-01T23:25:13.415Z,99.61
2023-03-01T23:27:44.721Z,99.54
2023-03-01T23:30:16.061Z,99.71
2023-03-01T23:32:47.270Z,99.75
2023-03-01T23:35:16.770Z,100.00
2023-03-01T23:37:47.589Z,100.00
2023-03-01T23:40:17.075Z,100.00
2023-03-01T23:42:46.924Z,99.95
2023-03-01T23:45:18.197Z,100.00
2023-03-01T23:47:47.876Z,100.00
2023-03-01T23:50:19.000Z,100.00
2023-03-01T23:52:50.368Z,100.00
2023-03-01T23:55:21.716Z,100.00
2023-03-01T23:57:51.278Z,100.00
